sensor_id;sensor_type;location;lat;lon;timestamp;P1;durP1;ratioP1;P2;durP2;ratioP2
42760;SDS011;31672;47.638;19.026;2022-09-17T00:04:43;2.67;;;1.73;;
42760;SDS011;31672;47.638;19.026;2022-09-17T00:09:49;3.13;;;1.97;;
42760;SDS011;31672;47.638;19.026;2022-09-17T00:14:51;2.83;;;2.03;;
42760;SDS011;31672;47.638;19.026;2022-09-17T00:19:55;2.75;;;1.92;;
42760;SDS011;31672;47.638;19.026;2022-09-17T00:24:58;2.75;;;2.08;;
42760;SDS011;31672;47.638;19.026;2022-09-17T00:30:02;3.15;;;2.00;;
42760;SDS011;31672;47.638;19.026;2022-09-17T00:35:05;2.60;;;2.00;;
42760;SDS011;31672;47.638;19.026;2022-09-17T00:40:09;3.22;;;1.70;;
42760;SDS011;31672;47.638;19.026;2022-09-17T00:45:12;2.67;;;1.97;;
42760;SDS011;31672;47.638;19.026;2022-09-17T00:55:34;3.58;;;2.20;;
42760;SDS011;31672;47.638;19.026;2022-09-17T01:00:45;3.17;;;2.25;;
42760;SDS011;31672;47.638;19.026;2022-09-17T01:05:49;4.30;;;2.20;;
42760;SDS011;31672;47.638;19.026;2022-09-17T01:16:15;3.67;;;2.58;;
42760;SDS011;31672;47.638;19.026;2022-09-17T01:33:12;2.65;;;1.60;;
42760;SDS011;31672;47.638;19.026;2022-09-17T01:38:30;2.35;;;1.90;;
42760;SDS011;31672;47.638;19.026;2022-09-17T01:49:25;2.72;;;1.70;;
42760;SDS011;31672;47.638;19.026;2022-09-17T01:54:34;2.33;;;1.60;;
42760;SDS011;31672;47.638;19.026;2022-09-17T01:59:56;2.50;;;1.70;;
42760;SDS011;31672;47.638;19.026;2022-09-17T02:05:24;3.70;;;1.73;;
42760;SDS011;31672;47.638;19.026;2022-09-17T02:10:39;2.17;;;1.85;;
42760;SDS011;31672;47.638;19.026;2022-09-17T02:15:58;2.88;;;1.77;;
42760;SDS011;31672;47.638;19.026;2022-09-17T02:27:12;2.47;;;1.43;;
42760;SDS011;31672;47.638;19.026;2022-09-17T02:32:25;3.50;;;1.38;;
42760;SDS011;31672;47.638;19.026;2022-09-17T02:37:28;2.03;;;1.60;;
42760;SDS011;31672;47.638;19.026;2022-09-17T02:53:17;1.40;;;0.93;;
42760;SDS011;31672;47.638;19.026;2022-09-17T03:00:00;1.93;;;1.30;;
42760;SDS011;31672;47.638;19.026;2022-09-17T03:04:45;3.60;;;1.40;;
42760;SDS011;31672;47.638;19.026;2022-09-17T03:09:50;2.30;;;1.53;;
42760;SDS011;31672;47.638;19.026;2022-09-17T03:14:53;1.90;;;1.50;;
42760;SDS011;31672;47.638;19.026;2022-09-17T03:19:56;2.33;;;1.53;;
42760;SDS011;31672;47.638;19.026;2022-09-17T03:24:59;1.67;;;1.27;;
42760;SDS011;31672;47.638;19.026;2022-09-17T03:30:02;1.47;;;1.13;;
42760;SDS011;31672;47.638;19.026;2022-09-17T03:35:07;2.27;;;1.30;;
42760;SDS011;31672;47.638;19.026;2022-09-17T03:40:10;2.70;;;1.37;;
42760;SDS011;31672;47.638;19.026;2022-09-17T03:45:13;2.57;;;1.40;;
42760;SDS011;31672;47.638;19.026;2022-09-17T03:50:16;2.00;;;1.37;;
42760;SDS011;31672;47.638;19.026;2022-09-17T03:55:19;1.27;;;1.00;;
42760;SDS011;31672;47.638;19.026;2022-09-17T04:00:22;2.00;;;1.47;;
42760;SDS011;31672;47.638;19.026;2022-09-17T04:05:25;2.67;;;1.37;;
42760;SDS011;31672;47.638;19.026;2022-09-17T04:10:28;2.53;;;1.03;;
42760;SDS011;31672;47.638;19.026;2022-09-17T04:15:30;2.47;;;1.47;;
42760;SDS011;31672;47.638;19.026;2022-09-17T04:20:33;2.37;;;1.40;;
42760;SDS011;31672;47.638;19.026;2022-09-17T04:25:36;1.80;;;1.23;;
42760;SDS011;31672;47.638;19.026;2022-09-17T04:30:40;2.10;;;1.43;;
42760;SDS011;31672;47.638;19.026;2022-09-17T04:35:44;2.13;;;1.20;;
42760;SDS011;31672;47.638;19.026;2022-09-17T04:40:47;2.30;;;1.37;;
42760;SDS011;31672;47.638;19.026;2022-09-17T04:45:51;1.83;;;1.17;;
42760;SDS011;31672;47.638;19.026;2022-09-17T04:50:54;2.73;;;1.07;;
42760;SDS011;31672;47.638;19.026;2022-09-17T04:55:56;2.73;;;1.40;;
42760;SDS011;31672;47.638;19.026;2022-09-17T05:00:59;1.20;;;0.93;;
42760;SDS011;31672;47.638;19.026;2022-09-17T05:06:02;1.30;;;0.77;;
42760;SDS011;31672;47.638;19.026;2022-09-17T05:11:05;1.20;;;0.80;;
42760;SDS011;31672;47.638;19.026;2022-09-17T05:16:08;1.77;;;0.90;;
42760;SDS011;31672;47.638;19.026;2022-09-17T05:21:11;2.30;;;1.40;;
42760;SDS011;31672;47.638;19.026;2022-09-17T05:26:14;2.17;;;1.20;;
42760;SDS011;31672;47.638;19.026;2022-09-17T05:31:17;2.70;;;1.30;;
42760;SDS011;31672;47.638;19.026;2022-09-17T05:36:20;1.95;;;1.15;;
42760;SDS011;31672;47.638;19.026;2022-09-17T05:41:23;2.80;;;1.27;;
42760;SDS011;31672;47.638;19.026;2022-09-17T05:46:26;2.50;;;1.30;;
42760;SDS011;31672;47.638;19.026;2022-09-17T05:51:29;1.87;;;1.20;;
42760;SDS011;31672;47.638;19.026;2022-09-17T05:56:32;1.83;;;1.20;;
42760;SDS011;31672;47.638;19.026;2022-09-17T06:01:35;1.93;;;0.90;;
42760;SDS011;31672;47.638;19.026;2022-09-17T06:06:38;1.87;;;1.00;;
42760;SDS011;31672;47.638;19.026;2022-09-17T06:11:42;1.77;;;1.00;;
42760;SDS011;31672;47.638;19.026;2022-09-17T06:16:46;2.97;;;1.20;;
42760;SDS011;31672;47.638;19.026;2022-09-17T06:21:48;1.60;;;1.00;;
42760;SDS011;31672;47.638;19.026;2022-09-17T06:26:51;1.67;;;1.20;;
42760;SDS011;31672;47.638;19.026;2022-09-17T06:31:55;1.90;;;1.20;;
42760;SDS011;31672;47.638;19.026;2022-09-17T06:36:58;2.77;;;1.90;;
42760;SDS011;31672;47.638;19.026;2022-09-17T06:42:00;3.83;;;2.70;;
42760;SDS011;31672;47.638;19.026;2022-09-17T06:47:04;5.63;;;3.60;;
42760;SDS011;31672;47.638;19.026;2022-09-17T06:52:07;2.30;;;1.70;;
42760;SDS011;31672;47.638;19.026;2022-09-17T06:57:10;3.00;;;1.40;;
42760;SDS011;31672;47.638;19.026;2022-09-17T07:02:12;2.47;;;1.53;;
42760;SDS011;31672;47.638;19.026;2022-09-17T07:07:17;2.43;;;1.40;;
42760;SDS011;31672;47.638;19.026;2022-09-17T07:12:20;2.47;;;1.30;;
42760;SDS011;31672;47.638;19.026;2022-09-17T07:17:23;1.60;;;1.10;;
42760;SDS011;31672;47.638;19.026;2022-09-17T07:22:26;2.30;;;1.30;;
42760;SDS011;31672;47.638;19.026;2022-09-17T07:27:29;2.30;;;1.10;;
42760;SDS011;31672;47.638;19.026;2022-09-17T07:32:32;1.93;;;1.03;;
42760;SDS011;31672;47.638;19.026;2022-09-17T07:37:37;4.37;;;1.30;;
42760;SDS011;31672;47.638;19.026;2022-09-17T07:42:40;3.70;;;1.40;;
42760;SDS011;31672;47.638;19.026;2022-09-17T07:47:43;1.77;;;1.00;;
42760;SDS011;31672;47.638;19.026;2022-09-17T07:52:46;1.70;;;1.05;;
42760;SDS011;31672;47.638;19.026;2022-09-17T07:57:49;1.83;;;0.90;;
42760;SDS011;31672;47.638;19.026;2022-09-17T08:02:53;1.17;;;0.65;;
42760;SDS011;31672;47.638;19.026;2022-09-17T08:07:57;1.43;;;0.90;;
42760;SDS011;31672;47.638;19.026;2022-09-17T08:13:00;1.10;;;0.70;;
42760;SDS011;31672;47.638;19.026;2022-09-17T08:18:03;3.33;;;1.20;;
42760;SDS011;31672;47.638;19.026;2022-09-17T08:23:06;1.80;;;1.10;;
42760;SDS011;31672;47.638;19.026;2022-09-17T08:28:08;1.80;;;0.90;;
42760;SDS011;31672;47.638;19.026;2022-09-17T08:33:11;1.60;;;1.00;;
42760;SDS011;31672;47.638;19.026;2022-09-17T08:38:14;1.70;;;1.10;;
42760;SDS011;31672;47.638;19.026;2022-09-17T08:43:18;2.43;;;1.13;;
42760;SDS011;31672;47.638;19.026;2022-09-17T08:48:21;2.17;;;1.60;;
42760;SDS011;31672;47.638;19.026;2022-09-17T08:58:52;2.38;;;1.23;;
42760;SDS011;31672;47.638;19.026;2022-09-17T09:09:43;2.25;;;1.33;;
42760;SDS011;31672;47.638;19.026;2022-09-17T09:20:30;1.42;;;1.13;;
42760;SDS011;31672;47.638;19.026;2022-09-17T09:25:53;2.45;;;1.30;;
42760;SDS011;31672;47.638;19.026;2022-09-17T09:31:25;2.20;;;1.50;;
42760;SDS011;31672;47.638;19.026;2022-09-17T09:37:19;2.40;;;1.58;;
42760;SDS011;31672;47.638;19.026;2022-09-17T09:42:32;1.80;;;1.40;;
42760;SDS011;31672;47.638;19.026;2022-09-17T09:58:36;2.50;;;1.40;;
42760;SDS011;31672;47.638;19.026;2022-09-17T10:03:42;1.77;;;1.27;;
42760;SDS011;31672;47.638;19.026;2022-09-17T10:19:27;1.25;;;0.80;;
42760;SDS011;31672;47.638;19.026;2022-09-17T10:24:30;4.05;;;1.30;;
42760;SDS011;31672;47.638;19.026;2022-09-17T10:29:35;2.70;;;1.35;;
42760;SDS011;31672;47.638;19.026;2022-09-17T10:35:13;3.60;;;2.05;;
42760;SDS011;31672;47.638;19.026;2022-09-17T10:40:29;1.77;;;0.82;;
42760;SDS011;31672;47.638;19.026;2022-09-17T10:45:33;2.65;;;0.75;;
42760;SDS011;31672;47.638;19.026;2022-09-17T10:50:46;1.25;;;0.70;;
42760;SDS011;31672;47.638;19.026;2022-09-17T11:01:31;1.95;;;0.50;;
42760;SDS011;31672;47.638;19.026;2022-09-17T11:12:39;1.05;;;0.50;;
42760;SDS011;31672;47.638;19.026;2022-09-17T11:18:35;1.77;;;0.45;;
42760;SDS011;31672;47.638;19.026;2022-09-17T11:35:22;1.20;;;0.50;;
42760;SDS011;31672;47.638;19.026;2022-09-17T11:41:11;0.40;;;0.30;;
42760;SDS011;31672;47.638;19.026;2022-09-17T11:46:48;0.38;;;0.28;;
42760;SDS011;31672;47.638;19.026;2022-09-17T11:52:37;1.55;;;0.55;;
42760;SDS011;31672;47.638;19.026;2022-09-17T11:57:47;1.08;;;0.40;;
42760;SDS011;31672;47.638;19.026;2022-09-17T12:02:59;1.48;;;0.40;;
42760;SDS011;31672;47.638;19.026;2022-09-17T12:18:52;1.95;;;0.70;;
42760;SDS011;31672;47.638;19.026;2022-09-17T12:24:02;1.08;;;0.40;;
42760;SDS011;31672;47.638;19.026;2022-09-17T12:40:20;2.95;;;0.82;;
42760;SDS011;31672;47.638;19.026;2022-09-17T12:45:50;2.53;;;0.50;;
42760;SDS011;31672;47.638;19.026;2022-09-17T12:57:03;1.00;;;0.40;;
42760;SDS011;31672;47.638;19.026;2022-09-17T13:24:21;1.88;;;1.30;;
42760;SDS011;31672;47.638;19.026;2022-09-17T13:34:46;1.45;;;0.90;;
42760;SDS011;31672;47.638;19.026;2022-09-17T13:39:49;1.50;;;1.10;;
42760;SDS011;31672;47.638;19.026;2022-09-17T13:45:26;4.45;;;2.47;;
42760;SDS011;31672;47.638;19.026;2022-09-17T13:55:42;2.80;;;0.90;;
42760;SDS011;31672;47.638;19.026;2022-09-17T14:21:39;2.08;;;0.65;;
42760;SDS011;31672;47.638;19.026;2022-09-17T14:32:30;12.90;;;3.35;;
42760;SDS011;31672;47.638;19.026;2022-09-17T14:38:03;12.30;;;3.53;;
42760;SDS011;31672;47.638;19.026;2022-09-17T14:49:18;3.53;;;0.90;;
42760;SDS011;31672;47.638;19.026;2022-09-17T14:54:29;3.10;;;1.50;;
42760;SDS011;31672;47.638;19.026;2022-09-17T14:59:48;1.83;;;0.90;;
42760;SDS011;31672;47.638;19.026;2022-09-17T15:10:07;1.33;;;0.70;;
42760;SDS011;31672;47.638;19.026;2022-09-17T15:15:20;1.17;;;0.50;;
42760;SDS011;31672;47.638;19.026;2022-09-17T15:20:28;1.00;;;0.70;;
42760;SDS011;31672;47.638;19.026;2022-09-17T15:25:35;1.43;;;0.60;;
42760;SDS011;31672;47.638;19.026;2022-09-17T15:30:39;4.10;;;0.90;;
42760;SDS011;31672;47.638;19.026;2022-09-17T15:41:30;1.88;;;0.70;;
42760;SDS011;31672;47.638;19.026;2022-09-17T15:46:36;1.30;;;0.80;;
42760;SDS011;31672;47.638;19.026;2022-09-17T15:51:40;1.17;;;0.50;;
42760;SDS011;31672;47.638;19.026;2022-09-17T15:56:54;0.90;;;0.60;;
42760;SDS011;31672;47.638;19.026;2022-09-17T16:02:01;0.50;;;0.40;;
42760;SDS011;31672;47.638;19.026;2022-09-17T16:12:17;0.93;;;0.53;;
42760;SDS011;31672;47.638;19.026;2022-09-17T16:22:48;2.93;;;1.43;;
42760;SDS011;31672;47.638;19.026;2022-09-17T16:27:58;3.83;;;1.37;;
42760;SDS011;31672;47.638;19.026;2022-09-17T16:33:04;1.20;;;0.90;;
42760;SDS011;31672;47.638;19.026;2022-09-17T16:38:08;1.20;;;0.50;;
42760;SDS011;31672;47.638;19.026;2022-09-17T16:43:12;1.40;;;0.70;;
42760;SDS011;31672;47.638;19.026;2022-09-17T16:48:16;0.87;;;0.50;;
42760;SDS011;31672;47.638;19.026;2022-09-17T16:53:18;3.93;;;0.63;;
42760;SDS011;31672;47.638;19.026;2022-09-17T16:58:21;1.10;;;0.70;;
42760;SDS011;31672;47.638;19.026;2022-09-17T17:03:24;2.60;;;0.90;;
42760;SDS011;31672;47.638;19.026;2022-09-17T17:08:31;2.03;;;0.80;;
42760;SDS011;31672;47.638;19.026;2022-09-17T17:13:35;1.53;;;0.90;;
42760;SDS011;31672;47.638;19.026;2022-09-17T17:18:40;2.93;;;0.90;;
42760;SDS011;31672;47.638;19.026;2022-09-17T17:23:45;1.70;;;0.90;;
42760;SDS011;31672;47.638;19.026;2022-09-17T17:28:48;2.50;;;1.20;;
42760;SDS011;31672;47.638;19.026;2022-09-17T17:33:51;1.87;;;1.63;;
42760;SDS011;31672;47.638;19.026;2022-09-17T17:38:58;1.07;;;0.60;;
42760;SDS011;31672;47.638;19.026;2022-09-17T17:44:03;0.83;;;0.67;;
42760;SDS011;31672;47.638;19.026;2022-09-17T17:49:05;3.93;;;1.77;;
42760;SDS011;31672;47.638;19.026;2022-09-17T17:54:09;4.67;;;1.67;;
42760;SDS011;31672;47.638;19.026;2022-09-17T17:59:12;1.30;;;0.80;;
42760;SDS011;31672;47.638;19.026;2022-09-17T18:04:15;1.80;;;0.87;;
42760;SDS011;31672;47.638;19.026;2022-09-17T18:09:18;2.03;;;0.80;;
42760;SDS011;31672;47.638;19.026;2022-09-17T18:14:21;0.83;;;0.40;;
42760;SDS011;31672;47.638;19.026;2022-09-17T18:19:24;1.67;;;0.77;;
42760;SDS011;31672;47.638;19.026;2022-09-17T18:24:26;1.00;;;0.60;;
42760;SDS011;31672;47.638;19.026;2022-09-17T18:29:29;2.90;;;0.93;;
42760;SDS011;31672;47.638;19.026;2022-09-17T18:34:32;1.10;;;0.50;;
42760;SDS011;31672;47.638;19.026;2022-09-17T18:39:37;1.27;;;0.73;;
42760;SDS011;31672;47.638;19.026;2022-09-17T18:45:00;2.30;;;0.77;;
42760;SDS011;31672;47.638;19.026;2022-09-17T18:50:03;1.50;;;1.00;;
42760;SDS011;31672;47.638;19.026;2022-09-17T18:55:06;2.40;;;0.80;;
42760;SDS011;31672;47.638;19.026;2022-09-17T19:00:09;3.10;;;1.10;;
42760;SDS011;31672;47.638;19.026;2022-09-17T19:05:13;2.53;;;1.17;;
42760;SDS011;31672;47.638;19.026;2022-09-17T19:10:17;1.77;;;0.80;;
42760;SDS011;31672;47.638;19.026;2022-09-17T19:15:20;0.90;;;0.60;;
42760;SDS011;31672;47.638;19.026;2022-09-17T19:20:25;0.90;;;0.70;;
42760;SDS011;31672;47.638;19.026;2022-09-17T19:25:28;1.50;;;0.80;;
42760;SDS011;31672;47.638;19.026;2022-09-17T19:30:31;0.87;;;0.60;;
42760;SDS011;31672;47.638;19.026;2022-09-17T19:35:35;1.23;;;0.60;;
42760;SDS011;31672;47.638;19.026;2022-09-17T19:40:38;0.63;;;0.53;;
42760;SDS011;31672;47.638;19.026;2022-09-17T19:45:41;0.83;;;0.50;;
42760;SDS011;31672;47.638;19.026;2022-09-17T19:50:51;2.53;;;0.60;;
42760;SDS011;31672;47.638;19.026;2022-09-17T19:55:55;1.17;;;0.52;;
42760;SDS011;31672;47.638;19.026;2022-09-17T20:00:58;1.20;;;0.50;;
42760;SDS011;31672;47.638;19.026;2022-09-17T20:06:02;1.17;;;0.67;;
42760;SDS011;31672;47.638;19.026;2022-09-17T20:11:08;1.43;;;0.73;;
42760;SDS011;31672;47.638;19.026;2022-09-17T20:16:13;2.50;;;0.77;;
42760;SDS011;31672;47.638;19.026;2022-09-17T20:21:22;1.27;;;0.60;;
42760;SDS011;31672;47.638;19.026;2022-09-17T20:26:29;1.17;;;0.80;;
42760;SDS011;31672;47.638;19.026;2022-09-17T20:31:33;2.13;;;0.80;;
42760;SDS011;31672;47.638;19.026;2022-09-17T20:36:36;0.63;;;0.57;;
42760;SDS011;31672;47.638;19.026;2022-09-17T20:41:39;0.77;;;0.60;;
42760;SDS011;31672;47.638;19.026;2022-09-17T20:46:43;1.07;;;0.77;;
42760;SDS011;31672;47.638;19.026;2022-09-17T20:51:46;1.10;;;0.80;;
42760;SDS011;31672;47.638;19.026;2022-09-17T20:56:48;1.67;;;0.90;;
42760;SDS011;31672;47.638;19.026;2022-09-17T21:01:51;1.33;;;0.70;;
42760;SDS011;31672;47.638;19.026;2022-09-17T21:06:55;1.23;;;0.57;;
42760;SDS011;31672;47.638;19.026;2022-09-17T21:11:57;1.10;;;0.67;;
42760;SDS011;31672;47.638;19.026;2022-09-17T21:17:00;1.27;;;0.70;;
42760;SDS011;31672;47.638;19.026;2022-09-17T21:22:04;0.67;;;0.50;;
42760;SDS011;31672;47.638;19.026;2022-09-17T21:27:07;1.27;;;0.60;;
42760;SDS011;31672;47.638;19.026;2022-09-17T21:32:10;1.67;;;0.60;;
42760;SDS011;31672;47.638;19.026;2022-09-17T21:37:13;0.90;;;0.50;;
42760;SDS011;31672;47.638;19.026;2022-09-17T21:42:15;0.50;;;0.40;;
42760;SDS011;31672;47.638;19.026;2022-09-17T21:47:18;1.13;;;0.80;;
42760;SDS011;31672;47.638;19.026;2022-09-17T21:52:21;1.23;;;0.60;;
42760;SDS011;31672;47.638;19.026;2022-09-17T21:57:25;0.90;;;0.53;;
42760;SDS011;31672;47.638;19.026;2022-09-17T22:02:28;0.90;;;0.53;;
42760;SDS011;31672;47.638;19.026;2022-09-17T22:07:32;0.70;;;0.40;;
42760;SDS011;31672;47.638;19.026;2022-09-17T22:12:35;0.70;;;0.40;;
42760;SDS011;31672;47.638;19.026;2022-09-17T22:17:38;0.77;;;0.60;;
42760;SDS011;31672;47.638;19.026;2022-09-17T22:22:41;0.70;;;0.40;;
42760;SDS011;31672;47.638;19.026;2022-09-17T22:27:47;0.30;;;0.30;;
42760;SDS011;31672;47.638;19.026;2022-09-17T22:33:10;0.50;;;0.30;;
42760;SDS011;31672;47.638;19.026;2022-09-17T22:38:13;0.90;;;0.50;;
42760;SDS011;31672;47.638;19.026;2022-09-17T22:43:16;0.43;;;0.30;;
42760;SDS011;31672;47.638;19.026;2022-09-17T22:48:18;1.00;;;0.40;;
42760;SDS011;31672;47.638;19.026;2022-09-17T22:53:22;0.43;;;0.37;;
42760;SDS011;31672;47.638;19.026;2022-09-17T22:58:24;1.00;;;0.60;;
42760;SDS011;31672;47.638;19.026;2022-09-17T23:03:28;0.87;;;0.43;;
42760;SDS011;31672;47.638;19.026;2022-09-17T23:08:31;2.30;;;0.60;;
42760;SDS011;31672;47.638;19.026;2022-09-17T23:13:35;1.47;;;0.60;;
42760;SDS011;31672;47.638;19.026;2022-09-17T23:18:38;0.90;;;0.50;;
42760;SDS011;31672;47.638;19.026;2022-09-17T23:23:41;1.33;;;0.47;;
42760;SDS011;31672;47.638;19.026;2022-09-17T23:28:46;2.23;;;0.70;;
42760;SDS011;31672;47.638;19.026;2022-09-17T23:33:50;0.70;;;0.57;;
42760;SDS011;31672;47.638;19.026;2022-09-17T23:38:57;0.60;;;0.50;;
42760;SDS011;31672;47.638;19.026;2022-09-17T23:44:01;0.83;;;0.70;;
42760;SDS011;31672;47.638;19.026;2022-09-17T23:49:16;1.23;;;1.00;;
42760;SDS011;31672;47.638;19.026;2022-09-17T23:54:19;1.83;;;0.80;;
42760;SDS011;31672;47.638;19.026;2022-09-17T23:59:23;0.77;;;0.53;;
